Pagina principale
METAR-TAF:

METAR-TAF

Aeroporti :

Niamey, Niger

Aeroporto di Niamey-Diori Hamani

latitudine: 13-29N, longitudine: 002-10E, altezza: 223 m

Osservazione

Il bollettino è stato emesso 1 ora e 14 minuti fa, alle 04:00 UTC
Vento 5 kt da est
Temperature 21°C
Umidità 13%
Pressione 1010 hPa
Visibilità: 4200 m
polvere diffusa

METAR: DRRN 180400Z 09005KT 4200 DU NSC 21/M08 Q1010 NOSIG

Ora: 06:14 (05:14 UTC)

Previsione

Il bollettino è stato emesso 6 ore e 14 minuti fa, alle 23:00 UTC
Previsione valida dal 18 alle 00 UTC al 19 alle 06 UTC
Vento 10 kt da est
Visibilità: 3500 m
polvere diffusa
Temporaneamente
dal 18 alle 06 UTC al 18 alle 10 UTC
Visibilità: 1800 m
Temporaneamente
dal 18 alle 17 UTC al 18 alle 21 UTC
Visibilità: 2500 m

TAF: DRRN 172300Z 1800/1906 08010KT 3500 DU NSC TEMPO 1806/1810 1800 TEMPO 1817/1821 2500

Osservazioni e previsioni meteorologiche di più di 4000 aeroporti (messaggi METAR e TAF).

Le stazioni disponibili sono rappresentate dai dischi gialli e rossi sulla carta.

Puntare il mouse per vedere il nome della stazione.

Clicca sopra per visualizzare le osservazioni e previsioni meteorologiche.

Per cambiare la mappa : fare clic sui pulsanti verdi con una croce nera per ingrandire, il pulsante verde con un trattino per diminuire, o sulla freccia verde per le mappe adiacenti.


METAR-TAF: